createdAt,value
2024-01-11T00:01:50.030Z,102344.44
2024-01-11T00:03:51.694Z,102352.56
2024-01-11T00:05:53.379Z,102355.53
2024-01-11T00:07:55.121Z,102354.66
2024-01-11T00:09:57.349Z,102351.09
2024-01-11T00:11:59.089Z,102351.81
2024-01-11T00:14:00.706Z,102340.84
2024-01-11T00:16:02.343Z,102343.34
2024-01-11T00:18:05.184Z,102335.22
2024-01-11T00:20:08.080Z,102334.28
2024-01-11T00:22:09.620Z,102329.00
2024-01-11T00:24:11.629Z,102340.84
2024-01-11T00:26:14.165Z,102329.00
2024-01-11T00:28:15.803Z,102343.53
2024-01-11T00:30:17.836Z,102340.84
2024-01-11T00:32:19.408Z,102344.19
2024-01-11T00:34:21.132Z,102347.63
2024-01-11T00:36:22.936Z,102348.50
2024-01-11T00:38:24.773Z,102352.06
2024-01-11T00:40:27.718Z,102355.63
2024-01-11T00:42:29.538Z,102363.75
2024-01-11T00:44:31.157Z,102358.47
2024-01-11T00:46:33.296Z,102365.03
2024-01-11T00:48:35.046Z,102370.47
2024-01-11T00:50:36.898Z,102366.97
2024-01-11T00:52:39.668Z,102381.41
2024-01-11T00:54:42.001Z,102375.88
2024-01-11T00:56:43.706Z,102371.19
2024-01-11T00:58:45.474Z,102375.63
2024-01-11T01:00:47.096Z,102372.78
2024-01-11T01:02:51.926Z,102377.19
2024-01-11T01:04:53.719Z,102369.19
2024-01-11T01:06:55.362Z,102375.63
2024-01-11T01:08:56.921Z,102374.75
2024-01-11T01:10:58.638Z,102376.59
2024-01-11T01:13:00.499Z,102373.19
2024-01-11T01:15:02.242Z,102375.63
2024-01-11T01:17:04.144Z,102372.78
2024-01-11T01:19:05.818Z,102367.34
2024-01-11T01:21:08.169Z,102369.94
2024-01-11T01:23:09.920Z,102374.34
2024-01-11T01:27:18.545Z,102376.19
2024-01-11T01:29:20.394Z,102379.91
2024-01-11T01:31:23.021Z,102374.75
2024-01-11T01:33:24.750Z,102390.16
2024-01-11T01:35:26.505Z,102390.88
2024-01-11T01:37:28.240Z,102386.34
2024-01-11T01:39:29.772Z,102390.59
2024-01-11T01:41:31.516Z,102389.75
2024-01-11T01:43:33.288Z,102386.06
2024-01-11T01:45:35.011Z,102395.91
2024-01-11T01:47:37.826Z,102406.88
2024-01-11T01:49:40.156Z,102403.31
2024-01-11T01:51:42.195Z,102415.16
2024-01-11T01:53:43.895Z,102414.31
2024-01-11T01:55:46.036Z,102420.72
2024-01-11T01:57:49.486Z,102422.44
2024-01-11T01:59:53.611Z,102422.31
2024-01-11T02:01:55.470Z,102417.72
2024-01-11T02:03:58.720Z,102419.34
2024-01-11T02:06:00.462Z,102421.06
2024-01-11T02:08:04.943Z,102429.06
2024-01-11T02:10:08.372Z,102432.75
2024-01-11T02:12:12.156Z,102421.31
2024-01-11T02:14:13.915Z,102433.88
2024-01-11T02:16:16.128Z,102434.00
2024-01-11T02:18:17.882Z,102440.31
2024-01-11T02:20:19.585Z,102439.16
2024-01-11T02:22:44.184Z,102442.63
2024-01-11T02:27:00.794Z,102441.47
2024-01-11T02:29:02.661Z,102438.78
2024-01-11T02:31:04.774Z,102449.63
2024-01-11T02:33:06.966Z,102450.63
2024-01-11T02:35:08.950Z,102452.47
2024-01-11T02:37:10.501Z,102454.47
2024-01-11T02:39:13.050Z,102450.91
2024-01-11T02:41:17.512Z,102454.47
2024-01-11T02:43:19.276Z,102454.31
2024-01-11T02:45:20.800Z,102454.19
2024-01-11T02:47:22.398Z,102451.22
2024-01-11T02:49:24.044Z,102452.06
2024-01-11T02:51:26.098Z,102453.94
2024-01-11T02:53:27.810Z,102453.09
2024-01-11T02:55:29.557Z,102451.22
2024-01-11T02:57:31.173Z,102456.78
2024-01-11T02:59:32.979Z,102457.63
2024-01-11T03:01:34.662Z,102449.50
2024-01-11T03:03:36.865Z,102449.34
2024-01-11T03:05:38.590Z,102455.41
2024-01-11T03:07:40.399Z,102455.25
2024-01-11T03:09:41.973Z,102453.41
2024-01-11T03:11:43.731Z,102458.81
2024-01-11T03:13:45.325Z,102459.84
2024-01-11T03:15:47.040Z,102470.56
2024-01-11T03:17:48.857Z,102463.41
2024-01-11T03:19:50.508Z,102458.81
2024-01-11T03:21:52.109Z,102465.00
2024-01-11T03:23:53.916Z,102465.84
2024-01-11T03:25:55.856Z,102470.16
2024-01-11T03:27:58.990Z,102470.03
2024-01-11T03:30:00.691Z,102459.03
2024-01-11T03:32:02.369Z,102469.00
2024-01-11T03:34:04.225Z,102468.16
2024-01-11T03:36:10.071Z,102470.88
2024-01-11T03:38:12.006Z,102462.03
2024-01-11T03:40:13.727Z,102469.41
2024-01-11T03:42:18.651Z,102465.00
2024-01-11T03:44:20.221Z,102469.53
2024-01-11T03:46:21.809Z,102463.13
2024-01-11T03:48:23.671Z,102463.97
2024-01-11T03:50:25.356Z,102477.41
2024-01-11T03:52:27.046Z,102477.41
2024-01-11T03:54:28.697Z,102471.16
2024-01-11T03:56:30.476Z,102471.16
2024-01-11T03:58:32.100Z,102471.28
2024-01-11T04:00:34.525Z,102467.84
2024-01-11T04:02:38.958Z,102470.56
2024-01-11T04:04:42.363Z,102479.56
2024-01-11T04:06:44.096Z,102473.28
2024-01-11T04:08:47.054Z,102472.25
2024-01-11T04:10:48.856Z,102474.84
2024-01-11T04:12:50.391Z,102477.56
2024-01-11T04:14:51.964Z,102480.25
2024-01-11T04:16:53.950Z,102492.13
2024-01-11T04:18:55.793Z,102491.25
2024-01-11T04:20:57.525Z,102484.25
2024-01-11T04:22:59.396Z,102489.81
2024-01-11T04:25:01.503Z,102484.50
2024-01-11T04:27:03.227Z,102485.38
2024-01-11T04:29:04.882Z,102494.22
2024-01-11T04:31:06.519Z,102489.69
2024-01-11T04:33:08.458Z,102491.38
2024-01-11T04:35:10.160Z,102503.13
2024-01-11T04:37:11.844Z,102494.09
2024-01-11T04:39:13.462Z,102491.38
2024-01-11T04:41:16.387Z,102492.41
2024-01-11T04:43:18.261Z,102499.91
2024-01-11T04:45:20.097Z,102507.22
2024-01-11T04:47:21.949Z,102502.75
2024-01-11T04:49:24.173Z,102498.94
2024-01-11T04:51:25.845Z,102498.81
2024-01-11T04:53:27.485Z,102495.09
2024-01-11T04:55:29.221Z,102499.38
2024-01-11T04:57:30.835Z,102503.13
2024-01-11T04:59:32.442Z,102512.09
2024-01-11T05:01:34.138Z,102513.84
2024-01-11T05:03:35.732Z,102511.25
2024-01-11T05:05:37.522Z,102506.81
2024-01-11T05:07:39.283Z,102514.94
2024-01-11T05:09:41.041Z,102518.50
2024-01-11T05:11:42.691Z,102512.81
2024-01-11T05:13:44.425Z,102508.16
2024-01-11T05:15:47.098Z,102511.56
2024-01-11T05:17:48.857Z,102511.56
2024-01-11T05:19:50.581Z,102508.00
2024-01-11T05:21:52.227Z,102508.88
2024-01-11T05:23:54.094Z,102505.31
2024-01-11T05:25:56.049Z,102500.84
2024-01-11T05:27:57.880Z,102502.72
2024-01-11T05:29:59.615Z,102504.41
2024-01-11T05:32:01.383Z,102505.16
2024-01-11T05:34:03.625Z,102504.91
2024-01-11T05:36:05.865Z,102499.47
2024-01-11T05:38:07.681Z,102514.63
2024-01-11T05:40:09.659Z,102512.78
2024-01-11T05:42:11.285Z,102517.19
2024-01-11T05:44:12.958Z,102531.66
2024-01-11T05:46:14.681Z,102526.34
2024-01-11T05:48:17.555Z,102535.47
2024-01-11T05:50:19.169Z,102531.16
2024-01-11T05:52:21.011Z,102532.88
2024-01-11T05:54:23.116Z,102521.91
2024-01-11T05:56:24.725Z,102520.78
2024-01-11T05:58:26.559Z,102523.25
2024-01-11T06:00:28.168Z,102528.66
2024-01-11T06:02:29.850Z,102534.94
2024-01-11T06:04:33.308Z,102535.94
2024-01-11T06:06:35.014Z,102540.63
2024-01-11T06:08:37.209Z,102551.63
2024-01-11T06:10:40.086Z,102550.91
2024-01-11T06:12:42.403Z,102562.59
2024-01-11T06:14:44.059Z,102565.31
2024-01-11T06:16:45.651Z,102566.91
2024-01-11T06:18:47.635Z,102568.63
2024-01-11T06:20:49.476Z,102572.34
2024-01-11T06:22:51.276Z,102569.50
2024-01-11T06:24:52.883Z,102572.22
2024-01-11T06:26:54.556Z,102572.34
2024-01-11T06:28:56.238Z,102566.78
2024-01-11T06:30:58.015Z,102562.34
2024-01-11T06:32:59.846Z,102565.06
2024-01-11T06:35:03.233Z,102569.50
2024-01-11T06:37:04.905Z,102572.94
2024-01-11T06:39:06.778Z,102590.81
2024-01-11T06:41:08.642Z,102593.41
2024-01-11T06:43:10.363Z,102601.56
2024-01-11T06:45:11.951Z,102609.69
2024-01-11T06:47:13.598Z,102618.81
2024-01-11T06:49:15.399Z,102619.84
2024-01-11T06:51:17.705Z,102617.13
2024-01-11T06:53:19.258Z,102618.34
2024-01-11T06:55:20.871Z,102624.50
2024-01-11T06:57:22.568Z,102624.38
2024-01-11T06:59:26.064Z,102631.41
2024-01-11T07:01:29.557Z,102634.97
2024-01-11T07:03:31.207Z,102639.28
2024-01-11T07:05:33.109Z,102632.13
2024-01-11T07:07:34.931Z,102629.41
2024-01-11T07:09:36.491Z,102631.28
2024-01-11T07:11:38.122Z,102627.72
2024-01-11T07:13:39.926Z,102625.13
2024-01-11T07:15:42.047Z,102617.13
2024-01-11T07:17:43.770Z,102621.53
2024-01-11T07:19:45.526Z,102629.41
2024-01-11T07:21:50.328Z,102635.59
2024-01-11T07:23:51.944Z,102641.75
2024-01-11T07:25:53.578Z,102646.06
2024-01-11T07:27:55.146Z,102636.06
2024-01-11T07:29:56.788Z,102655.91
2024-01-11T07:31:58.609Z,102656.91
2024-01-11T07:34:01.252Z,102658.88
2024-01-11T07:36:03.054Z,102648.16
2024-01-11T07:38:05.187Z,102655.44
2024-01-11T07:40:11.910Z,102658.03
2024-01-11T07:42:15.637Z,102657.03
2024-01-11T07:44:17.374Z,102658.75
2024-01-11T07:46:19.197Z,102660.47
2024-01-11T07:48:20.846Z,102655.06
2024-01-11T07:50:23.074Z,102659.50
2024-01-11T07:52:24.987Z,102659.63
2024-01-11T07:54:26.637Z,102666.88
2024-01-11T07:56:28.243Z,102665.31
2024-01-11T07:58:29.828Z,102674.44
2024-01-11T08:00:31.633Z,102681.88
2024-01-11T08:02:34.203Z,102677.16
2024-01-11T08:04:35.925Z,102673.34
2024-01-11T08:06:40.157Z,102674.19
2024-01-11T08:08:42.212Z,102676.78
2024-01-11T08:10:44.409Z,102677.63
2024-01-11T08:12:46.105Z,102675.78
2024-01-11T08:16:55.120Z,102685.75
2024-01-11T08:21:07.443Z,102679.50
2024-01-11T08:23:12.584Z,102675.03
2024-01-11T08:25:14.893Z,102666.75
2024-01-11T08:27:18.233Z,102667.50
2024-01-11T08:29:26.119Z,102661.97
2024-01-11T08:31:27.766Z,102684.25
2024-01-11T08:33:29.571Z,102687.97
2024-01-11T08:35:33.365Z,102681.69
2024-01-11T08:37:35.037Z,102678.25
2024-01-11T08:39:37.127Z,102678.25
2024-01-11T08:41:41.869Z,102685.50
2024-01-11T08:43:43.631Z,102694.66
2024-01-11T08:45:45.257Z,102687.38
2024-01-11T08:47:47.400Z,102691.69
2024-01-11T08:49:49.108Z,102686.13
2024-01-11T08:51:50.878Z,102683.41
2024-01-11T08:53:54.102Z,102690.53
2024-01-11T08:55:55.682Z,102701.41
2024-01-11T08:57:58.014Z,102697.00
2024-01-11T09:00:00.373Z,102697.13
2024-01-11T09:02:10.519Z,102684.53
2024-01-11T09:04:18.704Z,102705.41
2024-01-11T09:06:20.408Z,102706.25
2024-01-11T09:08:22.066Z,102712.53
2024-01-11T09:10:23.763Z,102701.53
2024-01-11T09:12:25.654Z,102713.28
2024-01-11T09:14:27.710Z,102721.28
2024-01-11T09:16:29.667Z,102724.00
2024-01-11T09:18:32.069Z,102715.72
2024-01-11T09:20:37.391Z,102711.28
2024-01-11T09:22:38.961Z,102717.69
2024-01-11T09:24:40.896Z,102713.28
2024-01-11T09:26:42.519Z,102719.69
2024-01-11T09:28:44.105Z,102713.28
2024-01-11T09:30:45.956Z,102711.53
2024-01-11T09:32:48.732Z,102714.13
2024-01-11T09:34:51.873Z,102716.72
2024-01-11T09:36:53.615Z,102723.13
2024-01-11T09:38:55.273Z,102723.13
2024-01-11T09:41:11.615Z,102709.81
2024-01-11T09:43:14.098Z,102721.56
2024-01-11T09:45:17.704Z,102710.69
2024-01-11T09:47:20.244Z,102709.81
2024-01-11T09:49:24.159Z,102705.41
2024-01-11T09:51:27.970Z,102706.97
2024-01-11T09:53:30.341Z,102708.56
2024-01-11T09:55:32.204Z,102708.69
2024-01-11T09:57:37.081Z,102695.97
2024-01-11T09:59:39.174Z,102703.28
2024-01-11T10:01:40.831Z,102706.84
2024-01-11T10:03:42.798Z,102714.97
2024-01-11T10:05:46.112Z,102708.84
2024-01-11T10:07:47.894Z,102713.41
2024-01-11T10:09:50.483Z,102718.84
2024-01-11T10:11:54.269Z,102718.84
2024-01-11T10:14:00.528Z,102717.06
2024-01-11T10:16:19.851Z,102714.22
2024-01-11T10:18:24.839Z,102728.41
2024-01-11T10:20:27.108Z,102721.22
2024-01-11T10:22:29.082Z,102707.91
2024-01-11T10:24:30.768Z,102699.78
2024-01-11T10:26:33.482Z,102682.75
2024-01-11T10:30:47.992Z,102695.75
2024-01-11T10:34:57.413Z,102687.59
2024-01-11T10:36:59.112Z,102681.16
2024-01-11T10:39:06.049Z,102680.19
2024-01-11T10:43:22.435Z,102691.88
2024-01-11T10:45:26.195Z,102688.31
2024-01-11T10:47:31.707Z,102691.28
2024-01-11T10:49:35.115Z,102703.00
2024-01-11T10:51:36.737Z,102711.03
2024-01-11T10:53:49.242Z,102705.84
2024-01-11T10:55:54.863Z,102705.97
2024-01-11T10:57:59.383Z,102698.81
2024-01-11T11:00:04.277Z,102700.56
2024-01-11T11:02:13.424Z,102696.84
2024-01-11T11:04:16.838Z,102690.81
2024-01-11T11:06:20.264Z,102689.81
2024-01-11T11:08:25.070Z,102676.13
2024-01-11T11:10:28.806Z,102683.03
2024-01-11T11:12:33.399Z,102691.16
2024-01-11T11:14:36.700Z,102689.56
2024-01-11T11:16:38.702Z,102696.84
2024-01-11T11:18:41.210Z,102696.84
2024-01-11T11:20:44.178Z,102704.34
2024-01-11T11:23:03.698Z,102699.66
2024-01-11T11:25:26.466Z,102708.28
2024-01-11T11:27:28.467Z,102703.56
2024-01-11T11:29:30.042Z,102708.88
2024-01-11T11:31:46.865Z,102721.47
2024-01-11T11:33:51.253Z,102711.72
2024-01-11T11:35:57.450Z,102709.13
2024-01-11T11:37:59.244Z,102703.09
2024-01-11T11:40:02.039Z,102713.84
2024-01-11T11:42:05.595Z,102711.25
2024-01-11T11:44:07.902Z,102701.25
2024-01-11T11:46:09.956Z,102709.00
2024-01-11T11:48:30.115Z,102718.13
2024-01-11T11:50:32.692Z,102709.53
2024-01-11T11:52:38.383Z,102716.19
2024-01-11T11:54:40.357Z,102720.91
2024-01-11T11:56:42.445Z,102719.44
2024-01-11T11:58:45.537Z,102712.25
2024-01-11T12:00:48.858Z,102719.44
2024-01-11T12:02:53.718Z,102712.63
2024-01-11T12:04:55.886Z,102706.22
2024-01-11T12:06:57.876Z,102712.97
2024-01-11T12:08:59.695Z,102717.41
2024-01-11T12:11:01.403Z,102713.84
2024-01-11T12:13:03.306Z,102701.38
2024-01-11T12:15:06.478Z,102708.66
2024-01-11T12:17:08.481Z,102710.63
2024-01-11T12:19:10.261Z,102705.19
2024-01-11T12:21:12.355Z,102707.78
2024-01-11T12:23:17.306Z,102705.81
2024-01-11T12:25:19.090Z,102701.13
2024-01-11T12:27:21.609Z,102697.41
2024-01-11T12:29:23.741Z,102704.69
2024-01-11T12:31:25.633Z,102701.84
2024-01-11T12:33:30.550Z,102696.66
2024-01-11T12:35:33.297Z,102694.97
2024-01-11T12:37:34.968Z,102688.66
2024-01-11T12:39:39.136Z,102676.09
2024-01-11T12:41:41.000Z,102677.91
2024-01-11T12:43:43.473Z,102676.22
2024-01-11T12:45:45.224Z,102669.91
2024-01-11T12:47:47.483Z,102667.06
2024-01-11T12:49:52.978Z,102667.06
2024-01-11T12:51:55.186Z,102667.06
2024-01-11T12:53:58.873Z,102658.06
2024-01-11T12:56:14.653Z,102658.06
2024-01-11T12:58:24.153Z,102654.50
2024-01-11T13:00:26.575Z,102665.09
2024-01-11T13:02:28.185Z,102660.50
2024-01-11T13:04:29.753Z,102659.97
2024-01-11T13:06:32.570Z,102655.00
2024-01-11T13:08:37.689Z,102657.63
2024-01-11T13:10:39.834Z,102656.34
2024-01-11T13:12:41.365Z,102653.63
2024-01-11T13:14:43.296Z,102658.06
2024-01-11T13:16:44.935Z,102653.38
2024-01-11T13:18:48.056Z,102651.69
2024-01-11T13:20:49.965Z,102654.84
2024-01-11T13:23:15.133Z,102644.13
2024-01-11T13:25:16.760Z,102648.69
2024-01-11T13:27:18.386Z,102661.13
2024-01-11T13:29:20.020Z,102654.59
2024-01-11T13:31:22.032Z,102658.91
2024-01-11T13:33:25.078Z,102664.19
2024-01-11T13:35:27.026Z,102663.81
2024-01-11T13:37:28.698Z,102659.06
2024-01-11T13:39:30.427Z,102663.25
2024-01-11T13:41:32.095Z,102655.97
2024-01-11T13:43:33.924Z,102653.25
2024-01-11T13:45:38.233Z,102655.81
2024-01-11T13:47:40.256Z,102653.84
2024-01-11T13:49:42.118Z,102654.56
2024-01-11T13:51:53.332Z,102656.56
2024-01-11T13:54:00.349Z,102654.97
2024-01-11T13:56:02.463Z,102652.00
2024-01-11T13:58:05.012Z,102646.41
2024-01-11T14:00:07.580Z,102654.28
2024-01-11T14:02:09.182Z,102650.47
2024-01-11T14:04:10.788Z,102645.75
2024-01-11T14:06:12.866Z,102652.28
2024-01-11T14:08:14.870Z,102651.72
2024-01-11T14:10:16.692Z,102645.56
2024-01-11T14:12:19.177Z,102647.25
2024-01-11T14:14:22.125Z,102640.00
2024-01-11T14:16:25.271Z,102641.56
2024-01-11T14:18:27.318Z,102654.16
2024-01-11T14:20:29.354Z,102657.59
2024-01-11T14:22:31.090Z,102649.19
2024-01-11T14:24:36.468Z,102651.91
2024-01-11T14:26:39.319Z,102649.91
2024-01-11T14:28:43.887Z,102647.19
2024-01-11T14:30:46.147Z,102656.06
2024-01-11T14:32:47.846Z,102649.91
2024-01-11T14:34:50.362Z,102654.50
2024-01-11T14:36:52.284Z,102661.06
2024-01-11T14:38:54.158Z,102665.25
2024-01-11T14:40:55.875Z,102669.66
2024-01-11T14:42:57.540Z,102668.66
2024-01-11T14:44:59.377Z,102676.69
2024-01-11T14:47:01.436Z,102690.16
2024-01-11T14:49:05.446Z,102691.88
2024-01-11T14:51:08.882Z,102687.16
2024-01-11T14:53:10.667Z,102689.16
2024-01-11T14:55:12.376Z,102697.31
2024-01-11T14:57:15.002Z,102699.16
2024-01-11T14:59:17.302Z,102702.00
2024-01-11T15:01:18.900Z,102696.13
2024-01-11T15:03:20.859Z,102702.53
2024-01-11T15:05:22.624Z,102706.72
2024-01-11T15:07:24.539Z,102713.75
2024-01-11T15:09:27.173Z,102707.16
2024-01-11T15:11:29.250Z,102718.94
2024-01-11T15:13:32.002Z,102720.63
2024-01-11T15:15:33.732Z,102723.97
2024-01-11T15:17:35.781Z,102725.78
2024-01-11T15:19:37.967Z,102719.38
2024-01-11T15:21:43.765Z,102722.53
2024-01-11T15:23:53.437Z,102729.31
2024-01-11T15:25:55.080Z,102723.16
2024-01-11T15:27:57.063Z,102720.28
2024-01-11T15:29:59.063Z,102721.13
2024-01-11T15:32:00.847Z,102724.75
2024-01-11T15:34:02.835Z,102727.47
2024-01-11T15:36:05.890Z,102727.97
2024-01-11T15:38:07.564Z,102727.66
2024-01-11T15:40:09.544Z,102737.56
2024-01-11T15:42:11.218Z,102737.56
2024-01-11T15:44:15.543Z,102742.84
2024-01-11T15:46:17.492Z,102741.56
2024-01-11T15:48:19.218Z,102749.50
2024-01-11T15:50:21.011Z,102757.50
2024-01-11T15:52:22.668Z,102766.66
2024-01-11T15:54:25.591Z,102767.06
2024-01-11T15:56:27.457Z,102771.84
2024-01-11T15:58:30.057Z,102775.09
2024-01-11T16:00:32.107Z,102773.75
2024-01-11T16:02:34.140Z,102765.16
2024-01-11T16:04:40.449Z,102766.13
2024-01-11T16:06:42.210Z,102773.44
2024-01-11T16:08:44.050Z,102767.63
2024-01-11T16:10:45.843Z,102764.19
2024-01-11T16:12:47.566Z,102776.31
2024-01-11T16:14:49.279Z,102767.72
2024-01-11T16:16:50.929Z,102773.28
2024-01-11T16:18:52.576Z,102768.38
2024-01-11T16:20:55.784Z,102775.00
2024-01-11T16:22:57.779Z,102772.81
2024-01-11T16:24:59.657Z,102775.41
2024-01-11T16:27:01.520Z,102774.63
2024-01-11T16:29:03.139Z,102781.34
2024-01-11T16:31:05.916Z,102775.91
2024-01-11T16:33:09.546Z,102790.34
2024-01-11T16:35:11.397Z,102789.50
2024-01-11T16:37:13.261Z,102789.25
2024-01-11T16:39:14.901Z,102794.22
2024-01-11T16:41:16.979Z,102797.91
2024-01-11T16:43:18.924Z,102802.88
2024-01-11T16:45:20.879Z,102806.44
2024-01-11T16:47:22.477Z,102804.34
2024-01-11T16:49:24.518Z,102796.94
2024-01-11T16:51:26.383Z,102797.66
2024-01-11T16:53:28.259Z,102805.53
2024-01-11T16:55:30.096Z,102799.84
2024-01-11T16:57:31.675Z,102803.31
2024-01-11T16:59:34.233Z,102807.16
2024-01-11T17:01:35.867Z,102822.22
2024-01-11T17:03:37.815Z,102811.03
2024-01-11T17:05:43.030Z,102806.56
2024-01-11T17:07:44.938Z,102807.69
2024-01-11T17:09:46.591Z,102816.97
2024-01-11T17:11:48.506Z,102814.97
2024-01-11T17:13:50.097Z,102812.00
2024-01-11T17:15:51.733Z,102808.31
2024-01-11T17:17:53.637Z,102820.41
2024-01-11T17:19:55.333Z,102827.81
2024-01-11T17:21:56.986Z,102826.22
2024-01-11T17:23:59.207Z,102825.34
2024-01-11T17:26:01.064Z,102829.91
2024-01-11T17:28:02.783Z,102832.63
2024-01-11T17:30:05.330Z,102823.63
2024-01-11T17:32:08.045Z,102825.47
2024-01-11T17:34:09.781Z,102831.63
2024-01-11T17:36:12.883Z,102828.78
2024-01-11T17:38:14.466Z,102827.69
2024-01-11T17:40:16.695Z,102836.81
2024-01-11T17:42:21.299Z,102831.63
2024-01-11T17:44:25.377Z,102841.78
2024-01-11T17:46:29.327Z,102835.59
2024-01-11T17:48:31.539Z,102838.69
2024-01-11T17:50:34.028Z,102839.06
2024-01-11T17:52:35.713Z,102843.47
2024-01-11T17:54:39.355Z,102849.91
2024-01-11T17:56:43.898Z,102849.78
2024-01-11T17:58:45.678Z,102854.34
2024-01-11T18:00:47.692Z,102855.34
2024-01-11T18:02:49.362Z,102852.50
2024-01-11T18:04:50.987Z,102853.09
2024-01-11T18:06:52.765Z,102857.69
2024-01-11T18:08:54.975Z,102854.84
2024-01-11T18:10:56.710Z,102861.13
2024-01-11T18:12:58.326Z,102863.00
2024-01-11T18:15:00.166Z,102867.41
2024-01-11T18:17:01.868Z,102863.00
2024-01-11T18:19:03.685Z,102873.09
2024-01-11T18:21:06.012Z,102865.94
2024-01-11T18:23:09.419Z,102875.06
2024-01-11T18:25:11.132Z,102874.22
2024-01-11T18:27:12.771Z,102877.06
2024-01-11T18:29:15.623Z,102877.06
2024-01-11T18:31:17.638Z,102867.91
2024-01-11T18:33:19.263Z,102875.94
2024-01-11T18:35:20.983Z,102874.09
2024-01-11T18:37:24.827Z,102877.78
2024-01-11T18:39:26.512Z,102883.22
2024-01-11T18:41:28.097Z,102887.78
2024-01-11T18:43:30.049Z,102892.22
2024-01-11T18:45:31.630Z,102883.34
2024-01-11T18:47:33.313Z,102880.63
2024-01-11T18:49:35.056Z,102889.50
2024-01-11T18:51:42.943Z,102887.66
2024-01-11T18:53:44.636Z,102882.97
2024-01-11T18:55:46.559Z,102891.13
2024-01-11T18:57:48.336Z,102897.53
2024-01-11T18:59:50.270Z,102895.69
2024-01-11T19:01:51.976Z,102892.97
2024-01-11T19:03:53.799Z,102892.22
2024-01-11T19:05:55.497Z,102897.66
2024-01-11T19:08:00.571Z,102908.75
2024-01-11T19:10:02.584Z,102920.38
2024-01-11T19:12:04.737Z,102905.91
2024-01-11T19:14:06.595Z,102908.38
2024-01-11T19:16:09.943Z,102906.66
2024-01-11T19:18:11.951Z,102921.09
2024-01-11T19:20:13.974Z,102921.94
2024-01-11T19:22:15.596Z,102915.66
2024-01-11T19:24:17.175Z,102914.69
2024-01-11T19:26:18.839Z,102918.50
2024-01-11T19:28:20.704Z,102917.53
2024-01-11T19:30:22.635Z,102915.66
2024-01-11T19:32:24.447Z,102925.69
2024-01-11T19:34:27.893Z,102923.81
2024-01-11T19:36:29.859Z,102926.41
2024-01-11T19:38:35.259Z,102925.69
2024-01-11T19:40:36.805Z,102930.22
2024-01-11T19:42:38.492Z,102925.69
2024-01-11T19:44:40.191Z,102919.38
2024-01-11T19:46:45.037Z,102921.22
2024-01-11T19:48:47.322Z,102931.22
2024-01-11T19:50:49.287Z,102934.81
2024-01-11T19:52:51.765Z,102929.50
2024-01-11T19:54:59.816Z,102931.22
2024-01-11T19:57:01.494Z,102929.38
2024-01-11T19:59:04.268Z,102924.78
2024-01-11T20:01:05.990Z,102928.50
2024-01-11T20:03:08.505Z,102935.66
2024-01-11T20:05:10.249Z,102927.50
2024-01-11T20:07:11.870Z,102932.94
2024-01-11T20:09:16.677Z,102927.38
2024-01-11T20:11:18.445Z,102939.25
2024-01-11T20:13:20.083Z,102939.38
2024-01-11T20:15:21.698Z,102936.66
2024-01-11T20:17:23.520Z,102940.22
2024-01-11T20:19:25.416Z,102939.25
2024-01-11T20:21:27.074Z,102937.50
2024-01-11T20:23:29.008Z,102940.22
2024-01-11T20:25:30.594Z,102944.03
2024-01-11T20:27:32.173Z,102938.63
2024-01-11T20:29:34.845Z,102937.75
2024-01-11T20:31:37.929Z,102939.63
2024-01-11T20:33:39.844Z,102936.91
2024-01-11T20:35:42.023Z,102941.44
2024-01-11T20:37:43.704Z,102938.50
2024-01-11T20:39:45.354Z,102928.50
2024-01-11T20:41:47.091Z,102928.50
2024-01-11T20:43:50.137Z,102936.66
2024-01-11T20:45:52.975Z,102935.66
2024-01-11T20:47:54.744Z,102937.50
2024-01-11T20:49:56.671Z,102936.66
2024-01-11T20:52:00.353Z,102936.66
2024-01-11T20:54:02.239Z,102936.78
2024-01-11T20:56:04.422Z,102932.34
2024-01-11T20:58:09.264Z,102933.94
2024-01-11T21:00:11.916Z,102932.09
2024-01-11T21:02:13.693Z,102930.09
2024-01-11T21:04:15.580Z,102935.41
2024-01-11T21:06:17.331Z,102925.44
2024-01-11T21:08:20.914Z,102933.69
2024-01-11T21:10:25.480Z,102935.53
2024-01-11T21:12:27.127Z,102934.69
2024-01-11T21:14:28.795Z,102943.66
2024-01-11T21:16:30.476Z,102942.81
2024-01-11T21:18:34.068Z,102943.66
2024-01-11T21:20:36.656Z,102935.41
2024-01-11T21:22:38.374Z,102937.13
2024-01-11T21:24:40.271Z,102945.16
2024-01-11T21:26:45.172Z,102950.59
2024-01-11T21:28:50.940Z,102950.59
2024-01-11T21:30:52.582Z,102952.34
2024-01-11T21:32:54.630Z,102950.72
2024-01-11T21:34:56.357Z,102950.59
2024-01-11T21:36:58.031Z,102953.44
2024-01-11T21:39:00.160Z,102948.00
2024-01-11T21:41:02.850Z,102948.84
2024-01-11T21:43:06.440Z,102946.00
2024-01-11T21:45:09.412Z,102947.63
2024-01-11T21:47:11.384Z,102944.91
2024-01-11T21:49:19.091Z,102944.78
2024-01-11T21:51:20.797Z,102940.47
2024-01-11T21:53:22.685Z,102937.75
2024-01-11T21:55:25.665Z,102948.59
2024-01-11T21:57:27.232Z,102953.19
2024-01-11T21:59:29.239Z,102949.63
2024-01-11T22:01:31.334Z,102944.91
2024-01-11T22:03:35.151Z,102956.50
2024-01-11T22:05:36.886Z,102952.81
2024-01-11T22:07:38.698Z,102953.56
2024-01-11T22:09:40.325Z,102948.16
2024-01-11T22:11:42.017Z,102954.44
2024-01-11T22:13:48.968Z,102959.97
2024-01-11T22:15:50.613Z,102951.84
2024-01-11T22:17:52.363Z,102957.38
2024-01-11T22:19:54.165Z,102961.94
2024-01-11T22:21:55.824Z,102957.38
2024-01-11T22:23:57.597Z,102962.94
2024-01-11T22:25:59.294Z,102949.25
2024-01-11T22:28:01.063Z,102950.84
2024-01-11T22:30:05.877Z,102945.44
2024-01-11T22:32:07.657Z,102959.84
2024-01-11T22:34:09.261Z,102960.84
2024-01-11T22:36:11.085Z,102954.69
2024-01-11T22:38:12.727Z,102954.69
2024-01-11T22:40:17.565Z,102962.81
2024-01-11T22:42:19.141Z,102954.69
2024-01-11T22:44:20.870Z,102952.94
2024-01-11T22:46:22.593Z,102957.50
2024-01-11T22:48:24.448Z,102954.69
2024-01-11T22:50:26.449Z,102957.25
2024-01-11T22:52:28.043Z,102957.25
2024-01-11T22:54:30.181Z,102949.25
2024-01-11T22:56:35.917Z,102948.28
2024-01-11T22:58:37.620Z,102951.97
2024-01-11T23:00:41.460Z,102947.50
2024-01-11T23:02:43.116Z,102950.34
2024-01-11T23:04:44.705Z,102947.63
2024-01-11T23:06:46.413Z,102947.63
2024-01-11T23:08:48.035Z,102941.22
2024-01-11T23:10:49.864Z,102941.22
2024-01-11T23:12:51.611Z,102941.09
2024-01-11T23:14:53.292Z,102942.84
2024-01-11T23:16:55.085Z,102945.56
2024-01-11T23:18:56.925Z,102937.28
2024-01-11T23:20:58.876Z,102938.38
2024-01-11T23:23:00.613Z,102936.53
2024-01-11T23:25:02.512Z,102931.22
2024-01-11T23:27:06.856Z,102944.78
2024-01-11T23:29:08.431Z,102942.06
2024-01-11T23:31:10.268Z,102939.34
2024-01-11T23:33:12.509Z,102939.22
2024-01-11T23:35:14.383Z,102938.38